Time;durP1;ratioP1;P1;durP2;ratioP2;P2;SDS_P1;SDS_P2;PMS_P1;PMS_P2;Temp;Humidity;BMP_temperature;BMP_pressure;BME280_temperature;BME280_humidity;BME280_pressure;Samples;Min_cycle;Max_cycle;Signal;HPM_P1;HPM_P2
2023/09/01 00:00:34;;;;;;;2.53;2.33;;;;;;;;;;5041444;28;20242;-82
2023/09/01 00:03:02;;;;;;;4.33;2.63;;;;;;;;;;5037408;28;20214;-82
2023/09/01 00:05:33;;;;;;;4.20;2.43;;;;;;;;;;5045458;28;20230;-81
2023/09/01 00:08:01;;;;;;;3.03;2.27;;;;;;;;;;5051168;28;20279;-82
2023/09/01 00:10:28;;;;;;;6.83;2.90;;;;;;;;;;5047571;28;20237;-82
2023/09/01 00:12:55;;;;;;;3.13;2.63;;;;;;;;;;5036931;28;20222;-81
2023/09/01 00:15:22;;;;;;;3.07;2.80;;;;;;;;;;5051003;28;20241;-83
2023/09/01 00:17:49;;;;;;;2.97;2.63;;;;;;;;;;5049273;28;20321;-82
2023/09/01 00:20:17;;;;;;;2.93;2.60;;;;;;;;;;5034535;28;20313;-82
2023/09/01 00:22:44;;;;;;;3.03;2.70;;;;;;;;;;5034777;28;20211;-82
2023/09/01 00:25:11;;;;;;;2.73;2.20;;;;;;;;;;5047203;28;20202;-82
2023/09/01 00:27:39;;;;;;;4.17;2.67;;;;;;;;;;5051934;28;20233;-82
2023/09/01 00:30:06;;;;;;;2.97;2.70;;;;;;;;;;5047540;28;20224;-82
2023/09/01 00:32:33;;;;;;;2.97;2.60;;;;;;;;;;5050546;28;20287;-81
2023/09/01 00:35:03;;;;;;;3.53;2.90;;;;;;;;;;5044136;28;20206;-82
2023/09/01 00:37:31;;;;;;;5.30;2.73;;;;;;;;;;5033297;28;20226;-82
2023/09/01 00:39:58;;;;;;;3.27;2.67;;;;;;;;;;5049014;28;20213;-83
2023/09/01 00:42:25;;;;;;;3.03;2.50;;;;;;;;;;5044751;28;20203;-82
2023/09/01 00:44:52;;;;;;;3.43;2.63;;;;;;;;;;5038102;28;20211;-81
2023/09/01 00:47:19;;;;;;;2.87;2.60;;;;;;;;;;5034567;28;20234;-82
2023/09/01 00:49:46;;;;;;;4.00;2.90;;;;;;;;;;5043119;28;20654;-82
2023/09/01 00:52:13;;;;;;;3.37;2.47;;;;;;;;;;5053721;28;20225;-82
2023/09/01 00:54:42;;;;;;;3.00;2.80;;;;;;;;;;5054276;28;20202;-82
2023/09/01 00:57:09;;;;;;;4.73;2.80;;;;;;;;;;5054383;28;20233;-82
2023/09/01 00:59:38;;;;;;;3.50;2.87;;;;;;;;;;5050202;28;20202;-82
2023/09/01 01:02:05;;;;;;;5.57;3.00;;;;;;;;;;5053209;28;20246;-82
2023/09/01 01:04:32;;;;;;;4.47;3.30;;;;;;;;;;5049424;28;20216;-82
2023/09/01 01:07:06;;;;;;;3.00;2.80;;;;;;;;;;5044922;28;20234;-82
2023/09/01 01:09:36;;;;;;;3.50;3.20;;;;;;;;;;5047172;28;20224;-82
2023/09/01 01:12:07;;;;;;;3.27;2.97;;;;;;;;;;5034088;28;20234;-82
2023/09/01 01:14:37;;;;;;;6.17;3.40;;;;;;;;;;5044461;28;20233;-83
2023/09/01 01:17:06;;;;;;;5.03;3.43;;;;;;;;;;5047328;28;20584;-82
2023/09/01 01:19:41;;;;;;;3.70;3.30;;;;;;;;;;5046422;28;20206;-82
2023/09/01 01:22:09;;;;;;;4.93;3.30;;;;;;;;;;5053645;28;20233;-82
2023/09/01 01:24:38;;;;;;;3.97;3.30;;;;;;;;;;5054008;28;20202;-82
2023/09/01 01:27:05;;;;;;;6.67;3.73;;;;;;;;;;5039524;28;20235;-82
2023/09/01 01:29:32;;;;;;;3.87;2.70;;;;;;;;;;5041998;28;20214;-82
2023/09/01 01:32:00;;;;;;;3.27;2.97;;;;;;;;;;5053424;28;20230;-82
2023/09/01 01:34:30;;;;;;;4.57;3.27;;;;;;;;;;5045837;28;20229;-82
2023/09/01 01:37:02;;;;;;;3.20;2.90;;;;;;;;;;5036789;28;20254;-83
2023/09/01 01:39:32;;;;;;;2.57;2.37;;;;;;;;;;5047268;28;20194;-83
2023/09/01 01:42:02;;;;;;;2.30;2.10;;;;;;;;;;5053645;28;20229;-82
2023/09/01 01:44:40;;;;;;;2.50;2.30;;;;;;;;;;5040944;28;20713;-82
2023/09/01 01:47:08;;;;;;;2.57;2.17;;;;;;;;;;5033495;28;20605;-82
2023/09/01 01:49:35;;;;;;;2.47;2.20;;;;;;;;;;5036068;28;20749;-82
2023/09/01 01:52:02;;;;;;;2.17;1.97;;;;;;;;;;5036675;28;20246;-82
2023/09/01 01:54:30;;;;;;;2.20;2.00;;;;;;;;;;5043590;28;20245;-81
2023/09/01 01:56:57;;;;;;;2.30;2.10;;;;;;;;;;5046850;28;20234;-82
2023/09/01 01:59:25;;;;;;;2.03;1.93;;;;;;;;;;5055368;28;20198;-82
2023/09/01 02:01:52;;;;;;;2.20;2.10;;;;;;;;;;5038002;28;20241;-83
2023/09/01 02:04:19;;;;;;;2.20;2.10;;;;;;;;;;5042744;28;20206;-82
2023/09/01 02:06:46;;;;;;;2.27;2.00;;;;;;;;;;5043384;28;20237;-82
2023/09/01 02:09:14;;;;;;;2.00;1.90;;;;;;;;;;5051690;28;20241;-82
2023/09/01 02:11:41;;;;;;;2.53;2.33;;;;;;;;;;5052642;28;20257;-82
2023/09/01 02:14:08;;;;;;;2.53;2.10;;;;;;;;;;5041882;28;20225;-82
2023/09/01 02:16:36;;;;;;;3.30;2.03;;;;;;;;;;5038798;28;20227;-82
2023/09/01 02:19:03;;;;;;;2.00;1.90;;;;;;;;;;5044135;28;20226;-82
2023/09/01 02:21:31;;;;;;;2.67;2.47;;;;;;;;;;5048165;28;20264;-82
2023/09/01 02:23:58;;;;;;;3.17;2.33;;;;;;;;;;5052532;28;20202;-82
2023/09/01 02:26:25;;;;;;;2.27;2.10;;;;;;;;;;5044255;28;20233;-81
2023/09/01 02:28:52;;;;;;;3.13;2.50;;;;;;;;;;5032796;28;20339;-82
2023/09/01 02:31:21;;;;;;;2.50;2.30;;;;;;;;;;5042404;28;20610;-82
2023/09/01 02:33:49;;;;;;;3.03;2.83;;;;;;;;;;5047938;28;20619;-82
2023/09/01 02:36:22;;;;;;;3.80;2.80;;;;;;;;;;5043117;28;20242;-82
2023/09/01 02:38:49;;;;;;;2.90;2.70;;;;;;;;;;5052428;28;20233;-82
2023/09/01 02:41:16;;;;;;;3.07;2.77;;;;;;;;;;5036854;28;20235;-82
2023/09/01 02:43:44;;;;;;;2.70;2.50;;;;;;;;;;5036641;28;20206;-82
2023/09/01 02:46:11;;;;;;;2.97;2.77;;;;;;;;;;5033251;28;20717;-82
2023/09/01 02:48:38;;;;;;;3.47;2.53;;;;;;;;;;5037512;28;20707;-82
2023/09/01 02:51:07;;;;;;;3.90;3.03;;;;;;;;;;5051061;28;20230;-82
2023/09/01 02:53:34;;;;;;;4.77;3.00;;;;;;;;;;5048497;28;20230;-82
2023/09/01 02:56:01;;;;;;;3.23;2.73;;;;;;;;;;5042842;28;20237;-83
2023/09/01 02:58:28;;;;;;;4.50;3.00;;;;;;;;;;5051702;28;20233;-83
2023/09/01 03:00:56;;;;;;;4.07;3.10;;;;;;;;;;5042071;28;20232;-83
2023/09/01 03:03:23;;;;;;;2.57;2.30;;;;;;;;;;5051456;28;20199;-83
2023/09/01 03:05:51;;;;;;;2.50;2.30;;;;;;;;;;5047495;28;20701;-82
2023/09/01 03:08:20;;;;;;;2.70;2.10;;;;;;;;;;5040732;28;20234;-82
2023/09/01 03:10:48;;;;;;;2.70;2.03;;;;;;;;;;5046679;28;20234;-82
2023/09/01 03:13:15;;;;;;;2.27;2.13;;;;;;;;;;5050293;28;20621;-82
2023/09/01 03:15:42;;;;;;;2.30;1.57;;;;;;;;;;5048036;28;20234;-82
2023/09/01 03:18:10;;;;;;;1.60;1.50;;;;;;;;;;5051769;28;20701;-82
2023/09/01 03:20:38;;;;;;;1.60;1.50;;;;;;;;;;5050721;28;20240;-82
2023/09/01 03:23:05;;;;;;;2.30;1.40;;;;;;;;;;5051456;28;20248;-82
2023/09/01 03:25:34;;;;;;;1.60;1.50;;;;;;;;;;5051541;28;20234;-82
2023/09/01 03:28:01;;;;;;;2.30;1.40;;;;;;;;;;5051424;28;20234;-82
2023/09/01 03:30:28;;;;;;;2.73;1.40;;;;;;;;;;5047810;28;20230;-83
2023/09/01 03:32:55;;;;;;;1.20;1.10;;;;;;;;;;5032030;28;20202;-82
2023/09/01 03:35:22;;;;;;;1.50;1.40;;;;;;;;;;5039817;28;20230;-82
2023/09/01 03:37:49;;;;;;;1.30;1.23;;;;;;;;;;5038419;28;20237;-83
2023/09/01 03:40:16;;;;;;;1.27;1.23;;;;;;;;;;5032344;28;20230;-83
2023/09/01 03:42:45;;;;;;;1.00;1.00;;;;;;;;;;5038153;28;20210;-83
2023/09/01 03:45:12;;;;;;;1.20;1.10;;;;;;;;;;5032765;28;20738;-83
2023/09/01 03:47:39;;;;;;;1.63;1.20;;;;;;;;;;5036114;28;20233;-82
2023/09/01 03:50:06;;;;;;;1.40;1.30;;;;;;;;;;5043008;28;20210;-83
2023/09/01 03:52:33;;;;;;;1.20;1.20;;;;;;;;;;5046077;28;20207;-83
2023/09/01 03:55:00;;;;;;;1.10;1.10;;;;;;;;;;5031208;28;20222;-82
2023/09/01 03:57:28;;;;;;;2.27;1.50;;;;;;;;;;5038921;28;20230;-83
2023/09/01 03:59:56;;;;;;;1.20;1.20;;;;;;;;;;5030845;28;20202;-84
2023/09/01 04:02:23;;;;;;;1.10;1.10;;;;;;;;;;5040251;28;20261;-82
2023/09/01 04:04:50;;;;;;;1.20;1.20;;;;;;;;;;5044235;28;20205;-82
2023/09/01 04:07:17;;;;;;;1.40;1.30;;;;;;;;;;5026536;28;20246;-83
2023/09/01 04:09:44;;;;;;;5.03;1.43;;;;;;;;;;5048637;23;20221;-87
2023/09/01 04:12:11;;;;;;;1.10;1.10;;;;;;;;;;5047950;28;20227;-86
2023/09/01 04:14:38;;;;;;;2.00;1.20;;;;;;;;;;5046131;28;20249;-87
2023/09/01 04:17:07;;;;;;;1.40;1.37;;;;;;;;;;5062739;28;20229;-88
2023/09/01 04:19:34;;;;;;;1.37;1.30;;;;;;;;;;5054770;28;20237;-88
2023/09/01 04:22:01;;;;;;;1.67;1.57;;;;;;;;;;5037148;28;20234;-88
2023/09/01 04:24:28;;;;;;;1.30;1.30;;;;;;;;;;5037593;28;20214;-87
2023/09/01 04:26:55;;;;;;;1.80;1.40;;;;;;;;;;5037402;28;20231;-87
2023/09/01 04:29:22;;;;;;;1.60;1.40;;;;;;;;;;5037469;28;20214;-88
2023/09/01 04:31:50;;;;;;;1.40;1.40;;;;;;;;;;5036791;28;20230;-87
2023/09/01 04:34:19;;;;;;;1.50;1.40;;;;;;;;;;5036860;28;20218;-85
2023/09/01 04:36:46;;;;;;;1.47;1.37;;;;;;;;;;5035537;28;20226;-86
2023/09/01 04:39:14;;;;;;;1.57;1.47;;;;;;;;;;5037453;28;20592;-86
2023/09/01 04:41:42;;;;;;;1.90;1.80;;;;;;;;;;5042215;28;20235;-85
2023/09/01 04:44:09;;;;;;;1.20;1.20;;;;;;;;;;5041932;28;20203;-86
2023/09/01 04:46:36;;;;;;;2.03;1.40;;;;;;;;;;5049411;28;20256;-87
2023/09/01 04:49:03;;;;;;;1.33;1.10;;;;;;;;;;5056257;28;20202;-86
2023/09/01 04:51:31;;;;;;;1.50;1.40;;;;;;;;;;5048343;28;20724;-84
2023/09/01 04:53:58;;;;;;;2.83;1.30;;;;;;;;;;5035833;28;20703;-85
2023/09/01 04:56:25;;;;;;;1.30;1.30;;;;;;;;;;5044349;28;20241;-85
2023/09/01 04:58:52;;;;;;;1.27;1.27;;;;;;;;;;5036587;28;20221;-85
2023/09/01 05:01:20;;;;;;;1.27;1.20;;;;;;;;;;5034944;28;20242;-85
2023/09/01 05:03:47;;;;;;;1.50;1.40;;;;;;;;;;5036777;28;20207;-86
2023/09/01 05:06:14;;;;;;;2.03;1.60;;;;;;;;;;5036220;28;20226;-85
2023/09/01 05:08:43;;;;;;;1.80;1.53;;;;;;;;;;5044515;28;20209;-86
2023/09/01 05:11:10;;;;;;;1.90;1.80;;;;;;;;;;5038350;28;20234;-85
2023/09/01 05:13:37;;;;;;;1.93;1.60;;;;;;;;;;5036130;28;20206;-88
2023/09/01 05:16:07;;;;;;;1.87;1.77;;;;;;;;;;5044167;28;20222;-87
2023/09/01 05:18:34;;;;;;;1.80;1.70;;;;;;;;;;5042146;28;20684;-86
2023/09/01 05:21:02;;;;;;;2.00;1.90;;;;;;;;;;5034709;28;20237;-86
2023/09/01 05:23:31;;;;;;;1.93;1.83;;;;;;;;;;5043561;28;20297;-86
2023/09/01 05:26:00;;;;;;;2.10;2.00;;;;;;;;;;5043309;28;20712;-86
2023/09/01 05:28:27;;;;;;;2.57;2.30;;;;;;;;;;5037902;28;20206;-85
2023/09/01 05:30:57;;;;;;;2.40;2.20;;;;;;;;;;5040199;28;20618;-86
2023/09/01 05:33:24;;;;;;;2.33;2.07;;;;;;;;;;5043158;28;20205;-84
2023/09/01 05:35:51;;;;;;;2.60;2.40;;;;;;;;;;5049437;28;20241;-84
2023/09/01 05:38:18;;;;;;;2.40;2.30;;;;;;;;;;5035867;28;20207;-84
2023/09/01 05:40:45;;;;;;;3.67;2.27;;;;;;;;;;5033341;28;20253;-84
2023/09/01 05:43:17;;;;;;;3.43;3.00;;;;;;;;;;5033469;28;20684;-84
2023/09/01 05:45:44;;;;;;;4.30;2.83;;;;;;;;;;5041969;28;20238;-84
2023/09/01 05:48:11;;;;;;;3.20;2.90;;;;;;;;;;5042322;28;20214;-83
2023/09/01 05:50:38;;;;;;;5.93;3.27;;;;;;;;;;5033342;28;20238;-84
2023/09/01 05:53:05;;;;;;;3.63;3.33;;;;;;;;;;5042200;28;20207;-84
2023/09/01 05:55:32;;;;;;;5.83;3.70;;;;;;;;;;5033229;28;20242;-85
2023/09/01 05:57:59;;;;;;;6.97;5.60;;;;;;;;;;5042372;28;20203;-84
2023/09/01 06:00:28;;;;;;;6.03;5.43;;;;;;;;;;5044110;28;20241;-83
2023/09/01 06:02:55;;;;;;;7.63;5.80;;;;;;;;;;5045462;28;20289;-84
2023/09/01 06:05:22;;;;;;;5.90;5.13;;;;;;;;;;5036481;28;20235;-85
2023/09/01 06:07:49;;;;;;;7.07;4.80;;;;;;;;;;5039651;28;20210;-86
2023/09/01 06:10:16;;;;;;;4.93;3.97;;;;;;;;;;5042213;28;20238;-85
2023/09/01 06:12:43;;;;;;;5.57;4.63;;;;;;;;;;5040238;28;20319;-84
2023/09/01 06:15:11;;;;;;;6.43;4.53;;;;;;;;;;5041509;28;20242;-87
2023/09/01 06:17:39;;;;;;;5.47;4.57;;;;;;;;;;5036556;28;20207;-87
2023/09/01 06:20:07;;;;;;;5.27;4.37;;;;;;;;;;5044106;28;20233;-86
2023/09/01 06:22:34;;;;;;;6.03;5.40;;;;;;;;;;5031168;28;20214;-86
2023/09/01 06:25:02;;;;;;;5.60;4.53;;;;;;;;;;5040897;28;20661;-87
2023/09/01 06:27:29;;;;;;;8.83;5.97;;;;;;;;;;5044790;28;20217;-86
2023/09/01 06:29:57;;;;;;;8.80;5.63;;;;;;;;;;5036384;28;20318;-87
2023/09/01 06:32:24;;;;;;;7.27;5.77;;;;;;;;;;5044031;28;20264;-87
2023/09/01 06:34:53;;;;;;;8.57;5.70;;;;;;;;;;5041863;28;20218;-86
2023/09/01 06:37:20;;;;;;;6.30;5.63;;;;;;;;;;5041657;28;20572;-86
2023/09/01 06:39:47;;;;;;;9.80;6.40;;;;;;;;;;5035010;28;20242;-86
2023/09/01 06:42:14;;;;;;;7.53;6.00;;;;;;;;;;5042991;28;20226;-86
2023/09/01 06:44:41;;;;;;;7.87;6.03;;;;;;;;;;5042874;28;20214;-86
2023/09/01 06:47:08;;;;;;;9.20;6.10;;;;;;;;;;5042341;28;20228;-87
2023/09/01 06:49:35;;;;;;;8.40;6.57;;;;;;;;;;5026248;28;20233;-87
2023/09/01 06:52:04;;;;;;;9.07;6.83;;;;;;;;;;5041878;28;20313;-87
2023/09/01 06:54:31;;;;;;;6.50;5.90;;;;;;;;;;5044759;28;20602;-87
2023/09/01 06:56:58;;;;;;;10.60;6.47;;;;;;;;;;5043791;28;20222;-87
2023/09/01 06:59:25;;;;;;;8.37;6.30;;;;;;;;;;5038217;28;20210;-87
2023/09/01 07:01:52;;;;;;;9.17;7.23;;;;;;;;;;5045791;28;20237;-87
2023/09/01 07:04:19;;;;;;;11.40;7.30;;;;;;;;;;5044971;28;20292;-87
2023/09/01 07:06:46;;;;;;;8.90;7.70;;;;;;;;;;5043749;28;20230;-87
2023/09/01 07:09:15;;;;;;;10.87;7.17;;;;;;;;;;5035416;28;20210;-86
2023/09/01 07:11:42;;;;;;;10.13;7.10;;;;;;;;;;5040964;28;20284;-88
2023/09/01 07:14:09;;;;;;;10.63;7.47;;;;;;;;;;5033021;28;20199;-87
2023/09/01 07:16:36;;;;;;;8.97;7.17;;;;;;;;;;5044179;28;20226;-87
2023/09/01 07:19:03;;;;;;;9.83;6.87;;;;;;;;;;5037894;28;20202;-87
2023/09/01 07:21:30;;;;;;;8.57;6.60;;;;;;;;;;5043048;28;20238;-87
2023/09/01 07:23:57;;;;;;;10.27;6.90;;;;;;;;;;5044795;28;20202;-87
2023/09/01 07:26:26;;;;;;;8.10;6.30;;;;;;;;;;5038462;28;20234;-87
2023/09/01 07:28:53;;;;;;;7.37;6.10;;;;;;;;;;5039156;28;20243;-87
2023/09/01 07:31:20;;;;;;;8.30;6.37;;;;;;;;;;5042743;28;20234;-86
2023/09/01 07:33:47;;;;;;;7.90;5.80;;;;;;;;;;5041509;28;20198;-87
2023/09/01 07:36:14;;;;;;;6.13;5.30;;;;;;;;;;5032473;28;20247;-87
2023/09/01 07:38:41;;;;;;;6.97;5.37;;;;;;;;;;5041083;28;20199;-87
2023/09/01 07:41:08;;;;;;;6.63;5.30;;;;;;;;;;5036498;28;20238;-86
2023/09/01 07:43:37;;;;;;;4.60;4.10;;;;;;;;;;5032080;28;20210;-86
2023/09/01 07:46:04;;;;;;;5.60;4.60;;;;;;;;;;5029668;28;20229;-86
2023/09/01 07:48:31;;;;;;;5.93;4.50;;;;;;;;;;5038125;28;20207;-86
2023/09/01 07:50:58;;;;;;;5.43;4.57;;;;;;;;;;5029318;28;20233;-86
2023/09/01 07:53:25;;;;;;;6.10;5.07;;;;;;;;;;5032710;28;20202;-85
2023/09/01 07:55:52;;;;;;;5.07;4.57;;;;;;;;;;5040954;28;20237;-86
2023/09/01 07:58:20;;;;;;;4.73;4.23;;;;;;;;;;5030860;28;20232;-86
2023/09/01 08:00:49;;;;;;;4.97;4.53;;;;;;;;;;5036143;28;20230;-86
2023/09/01 08:03:17;;;;;;;4.67;4.27;;;;;;;;;;5036120;28;20210;-86
2023/09/01 08:05:44;;;;;;;6.27;5.67;;;;;;;;;;5030905;28;20241;-86
2023/09/01 08:08:13;;;;;;;6.00;4.87;;;;;;;;;;5032984;28;20199;-85
2023/09/01 08:10:40;;;;;;;6.73;5.03;;;;;;;;;;5031103;28;20226;-85
2023/09/01 08:13:08;;;;;;;4.90;4.50;;;;;;;;;;5031368;28;20195;-86
2023/09/01 08:15:35;;;;;;;6.03;5.53;;;;;;;;;;5028982;28;20245;-84
2023/09/01 08:18:04;;;;;;;5.20;4.43;;;;;;;;;;5031737;28;20289;-85
2023/09/01 08:20:32;;;;;;;4.00;3.70;;;;;;;;;;5030951;28;20248;-84
2023/09/01 08:22:59;;;;;;;4.80;4.27;;;;;;;;;;5036823;28;20285;-84
2023/09/01 08:25:26;;;;;;;4.43;3.88;;;;;;;;;;5040342;28;20230;-85
2023/09/01 08:27:53;;;;;;;4.22;3.85;;;;;;;;;;5034632;28;20202;-84
2023/09/01 08:30:20;;;;;;;4.37;4.07;;;;;;;;;;5033798;28;20688;-85
2023/09/01 08:32:47;;;;;;;3.28;2.88;;;;;;;;;;5038643;28;20207;-84
2023/09/01 08:35:15;;;;;;;4.35;3.95;;;;;;;;;;5031202;28;20235;-85
2023/09/01 08:37:43;;;;;;;7.60;4.22;;;;;;;;;;5027499;28;20206;-90
2023/09/01 08:40:13;;;;;;;7.45;4.25;;;;;;;;;;5043127;28;20225;-85
2023/09/01 08:42:45;;;;;;;3.80;3.50;;;;;;;;;;5033038;28;20225;-86
2023/09/01 08:45:13;;;;;;;3.55;3.25;;;;;;;;;;5038852;28;20230;-85
2023/09/01 08:47:42;;;;;;;3.90;3.50;;;;;;;;;;5039792;28;20214;-88
2023/09/01 08:50:09;;;;;;;3.67;3.38;;;;;;;;;;5030267;28;20231;-86
2023/09/01 08:52:38;;;;;;;4.60;3.80;;;;;;;;;;5029970;28;20214;-85
2023/09/01 08:55:06;;;;;;;4.53;3.72;;;;;;;;;;5037848;28;20233;-85
2023/09/01 08:57:33;;;;;;;3.00;2.70;;;;;;;;;;5033802;28;20257;-86
2023/09/01 09:00:00;;;;;;;3.60;3.30;;;;;;;;;;5043219;28;20228;-85
2023/09/01 09:02:27;;;;;;;4.55;3.88;;;;;;;;;;5043332;28;20203;-85
2023/09/01 09:04:54;;;;;;;3.42;3.13;;;;;;;;;;5035362;28;20198;-85
2023/09/01 09:07:22;;;;;;;5.50;3.70;;;;;;;;;;5031188;28;20203;-85
2023/09/01 09:09:54;;;;;;;4.75;3.38;;;;;;;;;;5033976;28;20234;-85
2023/09/01 09:12:22;;;;;;;3.50;3.20;;;;;;;;;;5033312;28;20222;-85
2023/09/01 09:14:52;;;;;;;5.05;3.00;;;;;;;;;;5029123;28;20223;-88
2023/09/01 09:17:19;;;;;;;5.35;2.67;;;;;;;;;;5035086;28;20215;-86
2023/09/01 09:19:53;;;;;;;4.05;2.70;;;;;;;;;;5034273;28;20222;-86
2023/09/01 09:22:20;;;;;;;3.20;2.90;;;;;;;;;;5033584;28;20302;-87
2023/09/01 09:24:48;;;;;;;3.47;2.60;;;;;;;;;;5041170;28;20210;-89
2023/09/01 09:27:17;;;;;;;3.20;2.78;;;;;;;;;;5050607;28;20316;-88
2023/09/01 09:29:45;;;;;;;3.67;2.60;;;;;;;;;;5035579;28;20234;-90
2023/09/01 09:32:21;;;;;;;4.00;2.47;;;;;;;;;;5035928;28;20241;-88
2023/09/01 09:35:05;;;;;;;3.55;2.88;;;;;;;;;;5040202;28;20202;-89
2023/09/01 09:37:32;;;;;;;2.10;2.00;;;;;;;;;;5047678;28;20391;-88
2023/09/01 09:40:11;;;;;;;2.42;2.20;;;;;;;;;;5035571;28;20842;-88
2023/09/01 09:42:40;;;;;;;3.63;2.42;;;;;;;;;;5036178;28;20210;-88
2023/09/01 09:45:21;;;;;;;3.08;2.42;;;;;;;;;;5035514;28;20202;-86
2023/09/01 09:47:49;;;;;;;3.05;2.33;;;;;;;;;;5031726;28;20202;-86
2023/09/01 09:50:17;;;;;;;2.63;2.42;;;;;;;;;;5039020;28;20289;-86
2023/09/01 09:52:47;;;;;;;2.35;2.15;;;;;;;;;;5035221;28;20672;-88
2023/09/01 09:55:19;;;;;;;2.35;2.10;;;;;;;;;;5035666;28;20239;-88
2023/09/01 09:57:48;;;;;;;2.00;1.90;;;;;;;;;;5035023;28;20206;-88
2023/09/01 10:00:16;;;;;;;3.58;2.15;;;;;;;;;;5034528;28;20238;-89
2023/09/01 10:02:46;;;;;;;1.92;1.83;;;;;;;;;;5036504;28;20198;-88
2023/09/01 10:05:15;;;;;;;3.05;1.83;;;;;;;;;;5034922;28;20265;-86
2023/09/01 10:07:42;;;;;;;2.30;2.10;;;;;;;;;;5034645;28;20214;-87
2023/09/01 10:10:11;;;;;;;1.83;1.70;;;;;;;;;;5034853;28;20236;-82
2023/09/01 10:12:38;;;;;;;2.80;1.75;;;;;;;;;;5032444;28;20293;-82
2023/09/01 10:15:08;;;;;;;2.25;1.92;;;;;;;;;;5027043;28;20219;-82
2023/09/01 10:17:35;;;;;;;3.03;2.00;;;;;;;;;;5032605;28;20665;-82
2023/09/01 10:20:07;;;;;;;2.17;1.67;;;;;;;;;;5031511;28;20692;-82
2023/09/01 10:22:38;;;;;;;1.80;1.70;;;;;;;;;;5041930;28;20206;-81
2023/09/01 10:25:10;;;;;;;3.33;2.05;;;;;;;;;;5031760;28;20202;-82
2023/09/01 10:27:37;;;;;;;2.78;1.90;;;;;;;;;;5034264;28;20214;-81
2023/09/01 10:30:24;;;;;;;2.13;1.92;;;;;;;;;;5034764;28;20227;-82
2023/09/01 10:32:52;;;;;;;3.05;2.58;;;;;;;;;;5032729;28;20224;-81
2023/09/01 10:35:34;;;;;;;1.80;1.70;;;;;;;;;;5031687;28;20708;-81
2023/09/01 10:38:09;;;;;;;1.77;1.67;;;;;;;;;;5025693;28;20568;-81
2023/09/01 10:40:40;;;;;;;2.17;1.98;;;;;;;;;;5030883;28;20292;-81
2023/09/01 10:43:08;;;;;;;1.70;1.55;;;;;;;;;;5033604;28;20301;-85
2023/09/01 10:45:35;;;;;;;1.80;1.63;;;;;;;;;;5025865;28;20318;-82
2023/09/01 10:48:04;;;;;;;2.30;1.73;;;;;;;;;;5017934;28;20637;-81
2023/09/01 10:50:34;;;;;;;2.03;1.63;;;;;;;;;;5030435;28;20612;-82
2023/09/01 10:53:18;;;;;;;1.52;1.35;;;;;;;;;;5032145;28;20606;-86
2023/09/01 10:56:03;;;;;;;1.95;1.65;;;;;;;;;;5030909;28;20223;-82
2023/09/01 10:58:38;;;;;;;2.30;1.88;;;;;;;;;;5032321;28;20206;-82
2023/09/01 11:01:20;;;;;;;3.17;1.70;;;;;;;;;;5030897;28;20234;-82
2023/09/01 11:03:48;;;;;;;1.70;1.60;;;;;;;;;;5032367;28;20669;-82
2023/09/01 11:06:16;;;;;;;2.13;1.88;;;;;;;;;;5031673;28;20223;-82
2023/09/01 11:08:43;;;;;;;2.30;1.60;;;;;;;;;;5032455;28;20219;-82
2023/09/01 11:11:11;;;;;;;2.65;1.48;;;;;;;;;;5031473;28;20237;-82
2023/09/01 11:13:38;;;;;;;2.90;1.75;;;;;;;;;;5032119;28;20583;-80
2023/09/01 11:16:08;;;;;;;1.92;1.73;;;;;;;;;;5039677;28;20230;-82
2023/09/01 11:18:36;;;;;;;2.05;1.55;;;;;;;;;;5032016;28;20218;-81
2023/09/01 11:21:08;;;;;;;3.85;1.40;;;;;;;;;;5031328;28;20425;-84
2023/09/01 11:23:35;;;;;;;2.05;1.42;;;;;;;;;;5031666;28;20207;-82
2023/09/01 11:26:03;;;;;;;1.45;1.20;;;;;;;;;;5031318;28;20234;-81
2023/09/01 11:28:31;;;;;;;1.13;1.02;;;;;;;;;;5031485;28;20217;-79
2023/09/01 11:31:01;;;;;;;1.10;1.10;;;;;;;;;;5031260;28;20237;-82
2023/09/01 11:33:29;;;;;;;1.40;1.20;;;;;;;;;;5031514;28;20206;-85
2023/09/01 11:36:09;;;;;;;1.13;1.00;;;;;;;;;;5031635;28;20230;-81
2023/09/01 11:38:37;;;;;;;1.00;1.00;;;;;;;;;;5031296;28;20206;-80
2023/09/01 11:41:08;;;;;;;0.70;0.70;;;;;;;;;;5031394;28;20242;-84
2023/09/01 11:43:35;;;;;;;1.02;0.85;;;;;;;;;;5034005;28;20207;-82
2023/09/01 11:46:03;;;;;;;1.30;1.00;;;;;;;;;;5047637;28;20310;-83
2023/09/01 11:48:30;;;;;;;0.95;0.95;;;;;;;;;;5032515;28;20211;-80
2023/09/01 11:50:58;;;;;;;0.95;0.88;;;;;;;;;;5037878;28;20296;-81
2023/09/01 11:53:27;;;;;;;0.80;0.80;;;;;;;;;;5031951;28;20207;-81
2023/09/01 11:55:58;;;;;;;1.80;0.98;;;;;;;;;;5030891;28;20254;-81
2023/09/01 11:58:25;;;;;;;0.88;0.65;;;;;;;;;;5032483;28;20260;-85
2023/09/01 12:00:53;;;;;;;0.73;0.73;;;;;;;;;;5039861;28;20257;-81
2023/09/01 12:03:22;;;;;;;0.90;0.90;;;;;;;;;;5032231;28;20213;-81
2023/09/01 12:05:49;;;;;;;1.35;1.23;;;;;;;;;;5030911;28;20235;-81
2023/09/01 12:08:16;;;;;;;1.05;0.90;;;;;;;;;;5032143;28;20284;-82
2023/09/01 12:10:45;;;;;;;1.05;1.05;;;;;;;;;;5030821;28;20238;-82
2023/09/01 12:13:13;;;;;;;1.00;1.00;;;;;;;;;;5032389;28;20213;-81
2023/09/01 12:15:58;;;;;;;0.98;0.98;;;;;;;;;;5031346;28;20234;-81
2023/09/01 12:18:29;;;;;;;0.85;0.85;;;;;;;;;;5032518;28;20217;-85
2023/09/01 12:20:56;;;;;;;1.38;1.27;;;;;;;;;;5030887;28;20355;-83
2023/09/01 12:23:27;;;;;;;1.20;1.10;;;;;;;;;;5032051;28;20234;-83
2023/09/01 12:25:55;;;;;;;1.45;1.33;;;;;;;;;;5031228;28;20237;-81
2023/09/01 12:28:23;;;;;;;1.35;1.20;;;;;;;;;;5032102;28;20211;-81
2023/09/01 12:30:50;;;;;;;1.23;1.05;;;;;;;;;;5027515;28;20238;-83
2023/09/01 12:33:18;;;;;;;2.05;1.20;;;;;;;;;;5034252;28;20285;-83
2023/09/01 12:35:45;;;;;;;1.25;1.17;;;;;;;;;;5035163;28;20290;-81
2023/09/01 12:38:12;;;;;;;1.17;1.17;;;;;;;;;;5035330;28;20699;-82
2023/09/01 12:40:39;;;;;;;2.78;1.20;;;;;;;;;;5034722;28;20704;-82
2023/09/01 12:43:08;;;;;;;5.88;1.30;;;;;;;;;;5034907;28;20716;-82
2023/09/01 12:45:35;;;;;;;1.83;1.23;;;;;;;;;;5033966;28;20891;-82
2023/09/01 12:48:03;;;;;;;1.35;1.27;;;;;;;;;;5035473;28;20203;-81
2023/09/01 12:50:31;;;;;;;1.60;1.48;;;;;;;;;;5034325;28;20280;-82
2023/09/01 12:52:58;;;;;;;1.15;1.10;;;;;;;;;;5025661;28;20203;-82
2023/09/01 12:55:25;;;;;;;1.13;1.02;;;;;;;;;;5033713;28;20264;-82
2023/09/01 12:57:53;;;;;;;1.50;1.40;;;;;;;;;;5033632;28;20226;-81
2023/09/01 13:00:21;;;;;;;2.25;1.30;;;;;;;;;;5033077;28;20245;-83
2023/09/01 13:02:50;;;;;;;1.45;1.33;;;;;;;;;;5033638;28;20203;-81
2023/09/01 13:05:18;;;;;;;2.00;1.45;;;;;;;;;;5033750;28;20226;-83
2023/09/01 13:07:47;;;;;;;1.77;1.50;;;;;;;;;;5033815;28;20298;-81
2023/09/01 13:10:14;;;;;;;1.27;1.13;;;;;;;;;;5033250;28;20239;-85
2023/09/01 13:12:41;;;;;;;4.35;1.70;;;;;;;;;;5034081;28;20241;-82
2023/09/01 13:15:08;;;;;;;1.70;1.60;;;;;;;;;;5034860;28;20203;-83
2023/09/01 13:17:37;;;;;;;1.63;1.50;;;;;;;;;;5034735;28;20230;-80
2023/09/01 13:20:05;;;;;;;1.50;1.40;;;;;;;;;;5033518;28;20233;-80
2023/09/01 13:22:32;;;;;;;1.77;1.67;;;;;;;;;;5034629;28;20885;-82
2023/09/01 13:24:59;;;;;;;3.10;1.88;;;;;;;;;;5025838;28;20206;-81
2023/09/01 13:27:26;;;;;;;1.85;1.63;;;;;;;;;;5034944;28;20744;-80
2023/09/01 13:29:53;;;;;;;2.17;1.50;;;;;;;;;;5033743;28;20249;-81
2023/09/01 13:32:20;;;;;;;1.20;1.10;;;;;;;;;;5033524;28;20199;-81
2023/09/01 13:34:49;;;;;;;1.30;1.20;;;;;;;;;;5033710;28;20203;-82
2023/09/01 13:37:16;;;;;;;2.10;1.60;;;;;;;;;;5033333;28;20226;-81
2023/09/01 13:39:43;;;;;;;2.22;1.40;;;;;;;;;;5033355;28;20230;-82
2023/09/01 13:42:10;;;;;;;1.67;1.55;;;;;;;;;;5033092;28;20237;-81
2023/09/01 13:44:37;;;;;;;1.55;1.30;;;;;;;;;;5033597;28;20218;-81
2023/09/01 13:47:05;;;;;;;2.33;1.63;;;;;;;;;;5051618;28;20222;-82
2023/09/01 13:49:32;;;;;;;1.15;1.15;;;;;;;;;;5040925;28;20202;-83
2023/09/01 13:52:03;;;;;;;1.30;1.20;;;;;;;;;;5032403;28;20230;-85
2023/09/01 13:54:30;;;;;;;1.17;1.08;;;;;;;;;;5033364;28;20653;-82
2023/09/01 13:56:57;;;;;;;1.23;0.88;;;;;;;;;;5032337;28;20728;-81
2023/09/01 13:59:24;;;;;;;1.73;0.88;;;;;;;;;;5032906;28;20210;-81
2023/09/01 14:01:51;;;;;;;1.52;1.00;;;;;;;;;;5032051;28;20747;-83
2023/09/01 14:04:18;;;;;;;1.33;1.13;;;;;;;;;;5033016;28;20248;-82
2023/09/01 14:06:45;;;;;;;1.13;1.02;;;;;;;;;;5032101;28;20229;-81
2023/09/01 14:09:13;;;;;;;0.80;0.80;;;;;;;;;;5032986;28;20289;-81
2023/09/01 14:11:40;;;;;;;1.10;0.82;;;;;;;;;;5031743;28;20237;-81
2023/09/01 14:14:08;;;;;;;0.77;0.77;;;;;;;;;;5032545;28;20203;-81
2023/09/01 14:16:35;;;;;;;0.88;0.88;;;;;;;;;;5032262;28;20234;-81
2023/09/01 14:19:02;;;;;;;1.15;1.05;;;;;;;;;;5024568;28;20217;-81
2023/09/01 14:21:29;;;;;;;1.40;0.93;;;;;;;;;;5031639;28;20234;-81
2023/09/01 14:23:56;;;;;;;2.08;1.23;;;;;;;;;;5032348;28;20214;-81
2023/09/01 14:26:25;;;;;;;3.00;1.10;;;;;;;;;;5032255;28;20298;-81
2023/09/01 14:28:52;;;;;;;1.20;1.08;;;;;;;;;;5032525;28;20305;-82
2023/09/01 14:31:19;;;;;;;1.02;0.98;;;;;;;;;;5031667;28;20238;-81
2023/09/01 14:33:46;;;;;;;1.38;0.85;;;;;;;;;;5032311;28;20215;-81
2023/09/01 14:36:13;;;;;;;1.08;1.08;;;;;;;;;;5032152;28;20231;-81
2023/09/01 14:38:40;;;;;;;1.40;1.05;;;;;;;;;;5034334;28;20229;-82
2023/09/01 14:41:07;;;;;;;1.30;1.10;;;;;;;;;;5030348;28;20226;-81
2023/09/01 14:43:35;;;;;;;1.50;1.08;;;;;;;;;;5028579;28;20206;-79
2023/09/01 14:46:04;;;;;;;1.50;1.13;;;;;;;;;;5030488;28;20234;-79
2023/09/01 14:48:32;;;;;;;0.90;0.90;;;;;;;;;;5031639;28;20213;-78